sensor_id;sensor_type;location;lat;lon;timestamp;P1;durP1;ratioP1;P2;durP2;ratioP2
56631;SDS011;42503;39.928;-75.152;2023-02-01T00:00:13;1.98;;;1.77;;
56631;SDS011;42503;39.928;-75.152;2023-02-01T00:10:16;6.25;;;2.35;;
56631;SDS011;42503;39.928;-75.152;2023-02-01T00:20:20;3.47;;;2.60;;
56631;SDS011;42503;39.928;-75.152;2023-02-01T00:30:22;3.97;;;2.35;;
56631;SDS011;42503;39.928;-75.152;2023-02-01T00:40:23;4.68;;;2.47;;
56631;SDS011;42503;39.928;-75.152;2023-02-01T00:50:24;4.72;;;2.30;;
56631;SDS011;42503;39.928;-75.152;2023-02-01T01:00:26;2.40;;;2.20;;
56631;SDS011;42503;39.928;-75.152;2023-02-01T01:10:27;2.05;;;1.85;;
56631;SDS011;42503;39.928;-75.152;2023-02-01T01:20:29;2.28;;;2.03;;
56631;SDS011;42503;39.928;-75.152;2023-02-01T01:30:30;3.78;;;2.22;;
56631;SDS011;42503;39.928;-75.152;2023-02-01T01:40:32;3.05;;;2.65;;
56631;SDS011;42503;39.928;-75.152;2023-02-01T01:50:35;2.13;;;1.92;;
56631;SDS011;42503;39.928;-75.152;2023-02-01T02:00:41;2.20;;;2.00;;
56631;SDS011;42503;39.928;-75.152;2023-02-01T02:10:43;1.83;;;1.60;;
56631;SDS011;42503;39.928;-75.152;2023-02-01T02:21:10;2.13;;;1.90;;
56631;SDS011;42503;39.928;-75.152;2023-02-01T02:31:46;3.47;;;2.22;;
56631;SDS011;42503;39.928;-75.152;2023-02-01T02:52:52;3.35;;;2.28;;
56631;SDS011;42503;39.928;-75.152;2023-02-01T03:03:42;4.55;;;1.88;;
56631;SDS011;42503;39.928;-75.152;2023-02-01T03:14:09;4.20;;;2.40;;
56631;SDS011;42503;39.928;-75.152;2023-02-01T03:24:17;5.10;;;2.85;;
56631;SDS011;42503;39.928;-75.152;2023-02-01T03:34:23;5.63;;;2.38;;
56631;SDS011;42503;39.928;-75.152;2023-02-01T03:44:26;8.02;;;3.05;;
56631;SDS011;42503;39.928;-75.152;2023-02-01T03:54:33;2.50;;;2.25;;
56631;SDS011;42503;39.928;-75.152;2023-02-01T04:04:35;3.72;;;2.38;;
56631;SDS011;42503;39.928;-75.152;2023-02-01T04:14:37;3.78;;;2.35;;
56631;SDS011;42503;39.928;-75.152;2023-02-01T04:24:38;4.03;;;2.58;;
56631;SDS011;42503;39.928;-75.152;2023-02-01T04:34:42;3.58;;;2.30;;
56631;SDS011;42503;39.928;-75.152;2023-02-01T04:44:47;2.85;;;2.38;;
56631;SDS011;42503;39.928;-75.152;2023-02-01T04:54:48;4.47;;;2.75;;
56631;SDS011;42503;39.928;-75.152;2023-02-01T05:04:49;4.00;;;2.30;;
56631;SDS011;42503;39.928;-75.152;2023-02-01T05:14:51;3.22;;;2.30;;
56631;SDS011;42503;39.928;-75.152;2023-02-01T05:24:52;2.95;;;2.55;;
56631;SDS011;42503;39.928;-75.152;2023-02-01T05:34:57;3.70;;;3.05;;
56631;SDS011;42503;39.928;-75.152;2023-02-01T05:44:58;3.17;;;2.50;;
56631;SDS011;42503;39.928;-75.152;2023-02-01T05:54:59;3.10;;;2.75;;
56631;SDS011;42503;39.928;-75.152;2023-02-01T06:05:01;2.65;;;2.45;;
56631;SDS011;42503;39.928;-75.152;2023-02-01T06:15:02;2.92;;;2.42;;
56631;SDS011;42503;39.928;-75.152;2023-02-01T06:25:04;2.47;;;2.28;;
56631;SDS011;42503;39.928;-75.152;2023-02-01T06:35:07;2.88;;;2.47;;
56631;SDS011;42503;39.928;-75.152;2023-02-01T06:45:16;3.45;;;2.60;;
56631;SDS011;42503;39.928;-75.152;2023-02-01T06:55:18;2.60;;;2.22;;
56631;SDS011;42503;39.928;-75.152;2023-02-01T07:05:19;2.40;;;2.20;;
56631;SDS011;42503;39.928;-75.152;2023-02-01T07:15:21;2.72;;;2.45;;
56631;SDS011;42503;39.928;-75.152;2023-02-01T07:25:25;2.88;;;2.05;;
56631;SDS011;42503;39.928;-75.152;2023-02-01T07:35:27;2.25;;;1.92;;
56631;SDS011;42503;39.928;-75.152;2023-02-01T07:45:31;2.75;;;2.13;;
56631;SDS011;42503;39.928;-75.152;2023-02-01T07:55:32;2.60;;;2.40;;
56631;SDS011;42503;39.928;-75.152;2023-02-01T08:05:35;2.38;;;2.15;;
56631;SDS011;42503;39.928;-75.152;2023-02-01T08:15:37;2.50;;;2.30;;
56631;SDS011;42503;39.928;-75.152;2023-02-01T08:25:38;2.38;;;2.10;;
56631;SDS011;42503;39.928;-75.152;2023-02-01T08:35:46;2.65;;;2.20;;
56631;SDS011;42503;39.928;-75.152;2023-02-01T08:45:47;2.20;;;2.00;;
56631;SDS011;42503;39.928;-75.152;2023-02-01T08:55:54;2.13;;;1.90;;
56631;SDS011;42503;39.928;-75.152;2023-02-01T09:06:02;2.30;;;2.10;;
56631;SDS011;42503;39.928;-75.152;2023-02-01T09:16:05;2.88;;;2.50;;
56631;SDS011;42503;39.928;-75.152;2023-02-01T09:26:06;2.72;;;2.13;;
56631;SDS011;42503;39.928;-75.152;2023-02-01T09:36:08;2.60;;;1.95;;
56631;SDS011;42503;39.928;-75.152;2023-02-01T09:46:26;2.35;;;2.13;;
56631;SDS011;42503;39.928;-75.152;2023-02-01T09:56:40;2.83;;;2.20;;
56631;SDS011;42503;39.928;-75.152;2023-02-01T10:27:47;2.63;;;2.25;;
56631;SDS011;42503;39.928;-75.152;2023-02-01T10:37:49;2.35;;;2.15;;
56631;SDS011;42503;39.928;-75.152;2023-02-01T10:47:52;2.38;;;1.90;;
56631;SDS011;42503;39.928;-75.152;2023-02-01T10:57:57;2.67;;;2.30;;
56631;SDS011;42503;39.928;-75.152;2023-02-01T11:08:03;2.35;;;2.15;;
56631;SDS011;42503;39.928;-75.152;2023-02-01T11:18:17;2.47;;;1.92;;
56631;SDS011;42503;39.928;-75.152;2023-02-01T11:28:21;2.80;;;2.38;;
56631;SDS011;42503;39.928;-75.152;2023-02-01T11:38:29;2.20;;;2.00;;
56631;SDS011;42503;39.928;-75.152;2023-02-01T11:48:33;2.33;;;2.08;;
56631;SDS011;42503;39.928;-75.152;2023-02-01T11:58:56;2.45;;;2.25;;
56631;SDS011;42503;39.928;-75.152;2023-02-01T12:19:31;3.15;;;1.77;;
56631;SDS011;42503;39.928;-75.152;2023-02-01T12:40:00;2.15;;;1.95;;
56631;SDS011;42503;39.928;-75.152;2023-02-01T12:50:18;4.63;;;1.60;;
56631;SDS011;42503;39.928;-75.152;2023-02-01T13:00:43;2.75;;;1.70;;
56631;SDS011;42503;39.928;-75.152;2023-02-01T13:10:56;2.40;;;1.90;;
56631;SDS011;42503;39.928;-75.152;2023-02-01T13:21:10;2.60;;;1.52;;
56631;SDS011;42503;39.928;-75.152;2023-02-01T13:51:54;2.10;;;1.50;;
56631;SDS011;42503;39.928;-75.152;2023-02-01T14:02:35;1.67;;;1.50;;
56631;SDS011;42503;39.928;-75.152;2023-02-01T14:12:48;2.88;;;1.48;;
56631;SDS011;42503;39.928;-75.152;2023-02-01T14:23:00;2.00;;;1.50;;
56631;SDS011;42503;39.928;-75.152;2023-02-01T14:33:11;2.95;;;1.30;;
56631;SDS011;42503;39.928;-75.152;2023-02-01T14:43:46;1.80;;;1.58;;
56631;SDS011;42503;39.928;-75.152;2023-02-01T14:53:50;1.75;;;1.50;;
56631;SDS011;42503;39.928;-75.152;2023-02-01T15:14:13;2.50;;;1.80;;
56631;SDS011;42503;39.928;-75.152;2023-02-01T15:24:19;1.95;;;1.73;;
56631;SDS011;42503;39.928;-75.152;2023-02-01T15:34:20;1.88;;;1.52;;
56631;SDS011;42503;39.928;-75.152;2023-02-01T15:44:45;1.95;;;1.80;;
56631;SDS011;42503;39.928;-75.152;2023-02-01T15:54:47;1.63;;;1.52;;
56631;SDS011;42503;39.928;-75.152;2023-02-01T16:04:52;2.05;;;1.50;;
56631;SDS011;42503;39.928;-75.152;2023-02-01T16:14:55;1.70;;;1.35;;
56631;SDS011;42503;39.928;-75.152;2023-02-01T16:24:56;1.63;;;1.40;;
56631;SDS011;42503;39.928;-75.152;2023-02-01T16:34:58;2.15;;;1.75;;
56631;SDS011;42503;39.928;-75.152;2023-02-01T16:44:59;2.35;;;1.63;;
56631;SDS011;42503;39.928;-75.152;2023-02-01T16:55:00;1.80;;;1.10;;
56631;SDS011;42503;39.928;-75.152;2023-02-01T17:05:05;1.70;;;1.33;;
56631;SDS011;42503;39.928;-75.152;2023-02-01T17:15:07;2.15;;;1.63;;
56631;SDS011;42503;39.928;-75.152;2023-02-01T17:25:14;1.48;;;1.38;;
56631;SDS011;42503;39.928;-75.152;2023-02-01T17:35:21;1.38;;;1.27;;
56631;SDS011;42503;39.928;-75.152;2023-02-01T17:56:04;1.50;;;1.40;;
56631;SDS011;42503;39.928;-75.152;2023-02-01T18:06:05;1.80;;;1.23;;
56631;SDS011;42503;39.928;-75.152;2023-02-01T18:16:22;1.90;;;1.33;;
56631;SDS011;42503;39.928;-75.152;2023-02-01T18:26:25;1.92;;;1.23;;
56631;SDS011;42503;39.928;-75.152;2023-02-01T18:36:26;1.55;;;1.10;;
56631;SDS011;42503;39.928;-75.152;2023-02-01T18:46:30;2.20;;;1.40;;
56631;SDS011;42503;39.928;-75.152;2023-02-01T18:56:34;1.60;;;1.23;;
56631;SDS011;42503;39.928;-75.152;2023-02-01T19:06:35;3.70;;;1.45;;
56631;SDS011;42503;39.928;-75.152;2023-02-01T19:16:36;3.38;;;1.35;;
56631;SDS011;42503;39.928;-75.152;2023-02-01T19:26:39;1.75;;;1.20;;
56631;SDS011;42503;39.928;-75.152;2023-02-01T19:36:41;2.00;;;1.50;;
56631;SDS011;42503;39.928;-75.152;2023-02-01T19:46:43;2.17;;;1.02;;
56631;SDS011;42503;39.928;-75.152;2023-02-01T19:56:44;2.13;;;1.30;;
56631;SDS011;42503;39.928;-75.152;2023-02-01T20:06:48;2.00;;;1.30;;
56631;SDS011;42503;39.928;-75.152;2023-02-01T20:16:50;1.30;;;1.10;;
56631;SDS011;42503;39.928;-75.152;2023-02-01T20:26:51;2.75;;;1.38;;
56631;SDS011;42503;39.928;-75.152;2023-02-01T20:36:53;2.80;;;1.33;;
56631;SDS011;42503;39.928;-75.152;2023-02-01T20:46:54;1.55;;;1.17;;
56631;SDS011;42503;39.928;-75.152;2023-02-01T20:56:56;2.42;;;1.42;;
56631;SDS011;42503;39.928;-75.152;2023-02-01T21:06:57;5.47;;;1.30;;
56631;SDS011;42503;39.928;-75.152;2023-02-01T21:16:59;1.50;;;1.27;;
56631;SDS011;42503;39.928;-75.152;2023-02-01T21:27:01;1.75;;;1.10;;
56631;SDS011;42503;39.928;-75.152;2023-02-01T21:37:02;1.58;;;1.10;;
56631;SDS011;42503;39.928;-75.152;2023-02-01T21:47:04;1.55;;;1.10;;
56631;SDS011;42503;39.928;-75.152;2023-02-01T21:57:07;2.05;;;1.27;;
56631;SDS011;42503;39.928;-75.152;2023-02-01T22:07:12;2.33;;;0.95;;
56631;SDS011;42503;39.928;-75.152;2023-02-01T22:17:16;1.77;;;0.93;;
56631;SDS011;42503;39.928;-75.152;2023-02-01T22:27:18;1.65;;;1.20;;
56631;SDS011;42503;39.928;-75.152;2023-02-01T22:37:19;1.95;;;1.27;;
56631;SDS011;42503;39.928;-75.152;2023-02-01T22:47:20;1.40;;;1.10;;
56631;SDS011;42503;39.928;-75.152;2023-02-01T22:57:22;1.60;;;1.20;;
56631;SDS011;42503;39.928;-75.152;2023-02-01T23:07:24;1.00;;;0.90;;
56631;SDS011;42503;39.928;-75.152;2023-02-01T23:17:25;2.33;;;1.42;;
56631;SDS011;42503;39.928;-75.152;2023-02-01T23:27:27;3.63;;;1.20;;
56631;SDS011;42503;39.928;-75.152;2023-02-01T23:37:31;2.55;;;1.27;;
56631;SDS011;42503;39.928;-75.152;2023-02-01T23:47:32;1.98;;;1.10;;
56631;SDS011;42503;39.928;-75.152;2023-02-01T23:57:34;1.67;;;1.25;;
